sensor_id;sensor_type;location;lat;lon;timestamp;P1;durP1;ratioP1;P2;durP2;ratioP2
68273;SDS011;55104;47.356;19.448;2022-10-16T00:00:29;0.93;;;0.30;;
68273;SDS011;55104;47.356;19.448;2022-10-16T00:03:31;2.25;;;0.47;;
68273;SDS011;55104;47.356;19.448;2022-10-16T00:06:33;1.63;;;0.77;;
68273;SDS011;55104;47.356;19.448;2022-10-16T00:09:35;1.40;;;0.63;;
68273;SDS011;55104;47.356;19.448;2022-10-16T00:12:37;3.15;;;1.20;;
68273;SDS011;55104;47.356;19.448;2022-10-16T00:15:39;0.80;;;0.25;;
68273;SDS011;55104;47.356;19.448;2022-10-16T00:18:41;1.92;;;0.60;;
68273;SDS011;55104;47.356;19.448;2022-10-16T00:21:43;1.80;;;0.40;;
68273;SDS011;55104;47.356;19.448;2022-10-16T00:24:45;1.20;;;0.35;;
68273;SDS011;55104;47.356;19.448;2022-10-16T00:27:47;3.20;;;0.88;;
68273;SDS011;55104;47.356;19.448;2022-10-16T00:30:49;1.08;;;0.40;;
68273;SDS011;55104;47.356;19.448;2022-10-16T00:33:52;0.85;;;0.40;;
68273;SDS011;55104;47.356;19.448;2022-10-16T00:36:54;0.80;;;0.33;;
68273;SDS011;55104;47.356;19.448;2022-10-16T00:39:56;1.33;;;0.60;;
68273;SDS011;55104;47.356;19.448;2022-10-16T00:42:58;1.27;;;0.30;;
68273;SDS011;55104;47.356;19.448;2022-10-16T00:46:03;2.28;;;0.63;;
68273;SDS011;55104;47.356;19.448;2022-10-16T00:49:14;0.55;;;0.28;;
68273;SDS011;55104;47.356;19.448;2022-10-16T00:52:18;0.50;;;0.23;;
68273;SDS011;55104;47.356;19.448;2022-10-16T00:55:21;0.75;;;0.35;;
68273;SDS011;55104;47.356;19.448;2022-10-16T00:58:23;0.57;;;0.30;;
68273;SDS011;55104;47.356;19.448;2022-10-16T01:01:26;0.73;;;0.20;;
68273;SDS011;55104;47.356;19.448;2022-10-16T01:04:29;0.93;;;0.32;;
68273;SDS011;55104;47.356;19.448;2022-10-16T01:07:43;0.73;;;0.30;;
68273;SDS011;55104;47.356;19.448;2022-10-16T01:11:17;1.00;;;0.47;;
68273;SDS011;55104;47.356;19.448;2022-10-16T01:14:43;1.05;;;0.57;;
68273;SDS011;55104;47.356;19.448;2022-10-16T01:17:58;1.23;;;0.40;;
68273;SDS011;55104;47.356;19.448;2022-10-16T01:21:08;1.27;;;0.65;;
68273;SDS011;55104;47.356;19.448;2022-10-16T01:27:40;1.00;;;0.47;;
68273;SDS011;55104;47.356;19.448;2022-10-16T01:30:47;2.53;;;1.08;;
68273;SDS011;55104;47.356;19.448;2022-10-16T01:33:57;1.50;;;0.47;;
68273;SDS011;55104;47.356;19.448;2022-10-16T01:37:08;0.40;;;0.20;;
68273;SDS011;55104;47.356;19.448;2022-10-16T01:40:14;0.53;;;0.20;;
68273;SDS011;55104;47.356;19.448;2022-10-16T01:43:19;2.28;;;0.38;;
68273;SDS011;55104;47.356;19.448;2022-10-16T01:46:25;1.10;;;0.40;;
68273;SDS011;55104;47.356;19.448;2022-10-16T01:49:30;0.90;;;0.40;;
68273;SDS011;55104;47.356;19.448;2022-10-16T01:52:35;0.93;;;0.40;;
68273;SDS011;55104;47.356;19.448;2022-10-16T01:55:41;1.73;;;0.70;;
68273;SDS011;55104;47.356;19.448;2022-10-16T01:58:51;0.85;;;0.30;;
68273;SDS011;55104;47.356;19.448;2022-10-16T02:01:59;0.25;;;0.15;;
68273;SDS011;55104;47.356;19.448;2022-10-16T02:05:04;1.33;;;0.50;;
68273;SDS011;55104;47.356;19.448;2022-10-16T02:08:24;0.75;;;0.28;;
68273;SDS011;55104;47.356;19.448;2022-10-16T02:11:29;0.57;;;0.23;;
68273;SDS011;55104;47.356;19.448;2022-10-16T02:14:32;1.00;;;0.30;;
68273;SDS011;55104;47.356;19.448;2022-10-16T02:17:34;1.52;;;0.45;;
68273;SDS011;55104;47.356;19.448;2022-10-16T02:20:39;0.43;;;0.17;;
68273;SDS011;55104;47.356;19.448;2022-10-16T02:23:51;0.75;;;0.28;;
68273;SDS011;55104;47.356;19.448;2022-10-16T02:30:25;0.63;;;0.20;;
68273;SDS011;55104;47.356;19.448;2022-10-16T02:33:32;0.57;;;0.30;;
68273;SDS011;55104;47.356;19.448;2022-10-16T02:36:35;0.20;;;0.10;;
68273;SDS011;55104;47.356;19.448;2022-10-16T02:39:37;0.80;;;0.30;;
68273;SDS011;55104;47.356;19.448;2022-10-16T02:42:40;0.87;;;0.30;;
68273;SDS011;55104;47.356;19.448;2022-10-16T02:45:43;1.05;;;0.40;;
68273;SDS011;55104;47.356;19.448;2022-10-16T02:48:44;3.40;;;0.55;;
68273;SDS011;55104;47.356;19.448;2022-10-16T02:51:46;0.30;;;0.10;;
68273;SDS011;55104;47.356;19.448;2022-10-16T02:54:48;1.02;;;0.55;;
68273;SDS011;55104;47.356;19.448;2022-10-16T02:57:50;1.60;;;0.47;;
68273;SDS011;55104;47.356;19.448;2022-10-16T03:00:52;0.95;;;0.30;;
68273;SDS011;55104;47.356;19.448;2022-10-16T03:03:54;0.80;;;0.30;;
68273;SDS011;55104;47.356;19.448;2022-10-16T03:06:56;0.57;;;0.28;;
68273;SDS011;55104;47.356;19.448;2022-10-16T03:09:58;2.05;;;0.57;;
68273;SDS011;55104;47.356;19.448;2022-10-16T03:13:01;1.17;;;0.67;;
68273;SDS011;55104;47.356;19.448;2022-10-16T03:16:04;0.32;;;0.20;;
68273;SDS011;55104;47.356;19.448;2022-10-16T03:19:06;0.65;;;0.28;;
68273;SDS011;55104;47.356;19.448;2022-10-16T03:22:08;0.35;;;0.13;;
68273;SDS011;55104;47.356;19.448;2022-10-16T03:25:10;0.77;;;0.30;;
68273;SDS011;55104;47.356;19.448;2022-10-16T03:28:12;0.85;;;0.35;;
68273;SDS011;55104;47.356;19.448;2022-10-16T03:31:14;0.88;;;0.40;;
68273;SDS011;55104;47.356;19.448;2022-10-16T03:34:16;0.98;;;0.40;;
68273;SDS011;55104;47.356;19.448;2022-10-16T03:37:18;0.68;;;0.30;;
68273;SDS011;55104;47.356;19.448;2022-10-16T03:40:19;1.90;;;0.40;;
68273;SDS011;55104;47.356;19.448;2022-10-16T03:43:21;0.85;;;0.32;;
68273;SDS011;55104;47.356;19.448;2022-10-16T03:46:23;0.95;;;0.40;;
68273;SDS011;55104;47.356;19.448;2022-10-16T03:49:25;1.40;;;0.43;;
68273;SDS011;55104;47.356;19.448;2022-10-16T03:52:27;1.30;;;0.40;;
68273;SDS011;55104;47.356;19.448;2022-10-16T03:55:29;0.73;;;0.30;;
68273;SDS011;55104;47.356;19.448;2022-10-16T03:58:31;0.75;;;0.38;;
68273;SDS011;55104;47.356;19.448;2022-10-16T04:01:33;0.30;;;0.17;;
68273;SDS011;55104;47.356;19.448;2022-10-16T04:04:35;0.60;;;0.30;;
68273;SDS011;55104;47.356;19.448;2022-10-16T04:07:37;1.10;;;0.30;;
68273;SDS011;55104;47.356;19.448;2022-10-16T04:10:42;0.60;;;0.28;;
68273;SDS011;55104;47.356;19.448;2022-10-16T04:13:45;1.40;;;0.82;;
68273;SDS011;55104;47.356;19.448;2022-10-16T04:16:47;0.63;;;0.32;;
68273;SDS011;55104;47.356;19.448;2022-10-16T04:19:49;1.90;;;0.70;;
68273;SDS011;55104;47.356;19.448;2022-10-16T04:22:51;0.35;;;0.10;;
68273;SDS011;55104;47.356;19.448;2022-10-16T04:25:53;0.40;;;0.20;;
68273;SDS011;55104;47.356;19.448;2022-10-16T04:28:55;0.22;;;0.15;;
68273;SDS011;55104;47.356;19.448;2022-10-16T04:31:57;0.60;;;0.20;;
68273;SDS011;55104;47.356;19.448;2022-10-16T04:34:59;0.93;;;0.30;;
68273;SDS011;55104;47.356;19.448;2022-10-16T04:38:01;0.95;;;0.47;;
68273;SDS011;55104;47.356;19.448;2022-10-16T04:41:03;0.57;;;0.20;;
68273;SDS011;55104;47.356;19.448;2022-10-16T04:44:06;1.25;;;0.40;;
68273;SDS011;55104;47.356;19.448;2022-10-16T04:47:08;1.40;;;0.30;;
68273;SDS011;55104;47.356;19.448;2022-10-16T04:50:10;2.42;;;1.05;;
68273;SDS011;55104;47.356;19.448;2022-10-16T04:53:12;0.40;;;0.20;;
68273;SDS011;55104;47.356;19.448;2022-10-16T04:56:14;1.27;;;0.40;;
68273;SDS011;55104;47.356;19.448;2022-10-16T04:59:17;1.10;;;0.50;;
68273;SDS011;55104;47.356;19.448;2022-10-16T05:02:20;0.50;;;0.27;;
68273;SDS011;55104;47.356;19.448;2022-10-16T05:05:22;1.20;;;0.43;;
68273;SDS011;55104;47.356;19.448;2022-10-16T05:08:24;2.92;;;0.70;;
68273;SDS011;55104;47.356;19.448;2022-10-16T05:11:26;1.85;;;0.88;;
68273;SDS011;55104;47.356;19.448;2022-10-16T05:14:28;2.53;;;1.40;;
68273;SDS011;55104;47.356;19.448;2022-10-16T05:17:31;1.08;;;0.40;;
68273;SDS011;55104;47.356;19.448;2022-10-16T05:20:32;1.98;;;0.52;;
68273;SDS011;55104;47.356;19.448;2022-10-16T05:23:34;0.28;;;0.17;;
68273;SDS011;55104;47.356;19.448;2022-10-16T05:26:37;2.10;;;0.52;;
68273;SDS011;55104;47.356;19.448;2022-10-16T05:29:39;5.73;;;0.40;;
68273;SDS011;55104;47.356;19.448;2022-10-16T05:32:41;2.25;;;1.13;;
68273;SDS011;55104;47.356;19.448;2022-10-16T05:35:47;0.68;;;0.40;;
68273;SDS011;55104;47.356;19.448;2022-10-16T05:38:50;1.85;;;0.35;;
68273;SDS011;55104;47.356;19.448;2022-10-16T05:41:53;1.23;;;0.40;;
68273;SDS011;55104;47.356;19.448;2022-10-16T05:44:55;2.00;;;0.80;;
68273;SDS011;55104;47.356;19.448;2022-10-16T05:47:56;0.50;;;0.22;;
68273;SDS011;55104;47.356;19.448;2022-10-16T05:50:59;1.65;;;0.68;;
68273;SDS011;55104;47.356;19.448;2022-10-16T05:54:05;1.90;;;0.65;;
68273;SDS011;55104;47.356;19.448;2022-10-16T05:57:07;2.63;;;0.80;;
68273;SDS011;55104;47.356;19.448;2022-10-16T06:00:09;0.22;;;0.17;;
68273;SDS011;55104;47.356;19.448;2022-10-16T06:03:14;0.50;;;0.25;;
68273;SDS011;55104;47.356;19.448;2022-10-16T06:06:21;0.70;;;0.25;;
68273;SDS011;55104;47.356;19.448;2022-10-16T06:09:26;1.33;;;0.40;;
68273;SDS011;55104;47.356;19.448;2022-10-16T06:12:28;1.80;;;0.93;;
68273;SDS011;55104;47.356;19.448;2022-10-16T06:15:30;2.70;;;0.63;;
68273;SDS011;55104;47.356;19.448;2022-10-16T06:18:32;1.85;;;0.65;;
68273;SDS011;55104;47.356;19.448;2022-10-16T06:21:34;0.55;;;0.32;;
68273;SDS011;55104;47.356;19.448;2022-10-16T06:24:36;2.03;;;0.90;;
68273;SDS011;55104;47.356;19.448;2022-10-16T06:27:39;0.98;;;0.40;;
68273;SDS011;55104;47.356;19.448;2022-10-16T06:30:43;0.82;;;0.32;;
68273;SDS011;55104;47.356;19.448;2022-10-16T06:33:49;0.90;;;0.50;;
68273;SDS011;55104;47.356;19.448;2022-10-16T06:36:52;0.88;;;0.25;;
68273;SDS011;55104;47.356;19.448;2022-10-16T06:39:54;0.93;;;0.40;;
68273;SDS011;55104;47.356;19.448;2022-10-16T06:42:56;1.38;;;0.82;;
68273;SDS011;55104;47.356;19.448;2022-10-16T06:45:59;1.83;;;0.82;;
68273;SDS011;55104;47.356;19.448;2022-10-16T06:49:02;0.70;;;0.20;;
68273;SDS011;55104;47.356;19.448;2022-10-16T06:52:03;0.98;;;0.30;;
68273;SDS011;55104;47.356;19.448;2022-10-16T06:55:06;0.60;;;0.20;;
68273;SDS011;55104;47.356;19.448;2022-10-16T06:58:08;1.95;;;0.65;;
68273;SDS011;55104;47.356;19.448;2022-10-16T07:01:11;1.48;;;0.52;;
68273;SDS011;55104;47.356;19.448;2022-10-16T07:04:14;1.58;;;0.60;;
68273;SDS011;55104;47.356;19.448;2022-10-16T07:07:16;0.40;;;0.20;;
68273;SDS011;55104;47.356;19.448;2022-10-16T07:10:18;2.70;;;0.97;;
68273;SDS011;55104;47.356;19.448;2022-10-16T07:13:21;1.67;;;0.73;;
68273;SDS011;55104;47.356;19.448;2022-10-16T07:16:24;3.08;;;0.93;;
68273;SDS011;55104;47.356;19.448;2022-10-16T07:19:28;1.13;;;0.30;;
68273;SDS011;55104;47.356;19.448;2022-10-16T07:22:34;0.80;;;0.30;;
68273;SDS011;55104;47.356;19.448;2022-10-16T07:25:36;2.00;;;0.47;;
68273;SDS011;55104;47.356;19.448;2022-10-16T07:28:38;1.50;;;0.63;;
68273;SDS011;55104;47.356;19.448;2022-10-16T07:31:42;1.52;;;0.50;;
68273;SDS011;55104;47.356;19.448;2022-10-16T07:34:44;1.90;;;0.40;;
68273;SDS011;55104;47.356;19.448;2022-10-16T07:37:47;1.02;;;0.43;;
68273;SDS011;55104;47.356;19.448;2022-10-16T07:40:55;1.50;;;0.50;;
68273;SDS011;55104;47.356;19.448;2022-10-16T07:44:23;1.33;;;0.35;;
68273;SDS011;55104;47.356;19.448;2022-10-16T07:47:25;0.63;;;0.30;;
68273;SDS011;55104;47.356;19.448;2022-10-16T07:50:28;1.58;;;0.65;;
68273;SDS011;55104;47.356;19.448;2022-10-16T07:53:30;0.90;;;0.30;;
68273;SDS011;55104;47.356;19.448;2022-10-16T07:56:33;1.57;;;0.50;;
68273;SDS011;55104;47.356;19.448;2022-10-16T07:59:39;1.25;;;0.63;;
68273;SDS011;55104;47.356;19.448;2022-10-16T08:02:41;1.65;;;0.60;;
68273;SDS011;55104;47.356;19.448;2022-10-16T08:05:43;2.17;;;0.77;;
68273;SDS011;55104;47.356;19.448;2022-10-16T08:08:46;0.95;;;0.38;;
68273;SDS011;55104;47.356;19.448;2022-10-16T08:11:49;1.27;;;0.40;;
68273;SDS011;55104;47.356;19.448;2022-10-16T08:14:51;1.08;;;0.50;;
68273;SDS011;55104;47.356;19.448;2022-10-16T08:17:57;1.00;;;0.47;;
68273;SDS011;55104;47.356;19.448;2022-10-16T08:21:00;2.65;;;0.68;;
68273;SDS011;55104;47.356;19.448;2022-10-16T08:24:02;1.08;;;0.47;;
68273;SDS011;55104;47.356;19.448;2022-10-16T08:27:04;3.53;;;0.67;;
68273;SDS011;55104;47.356;19.448;2022-10-16T08:30:06;0.70;;;0.30;;
68273;SDS011;55104;47.356;19.448;2022-10-16T08:33:08;1.00;;;0.43;;
68273;SDS011;55104;47.356;19.448;2022-10-16T08:36:10;1.88;;;0.70;;
68273;SDS011;55104;47.356;19.448;2022-10-16T08:39:13;0.77;;;0.28;;
68273;SDS011;55104;47.356;19.448;2022-10-16T08:48:53;1.20;;;0.50;;
68273;SDS011;55104;47.356;19.448;2022-10-16T08:51:58;1.02;;;0.43;;
68273;SDS011;55104;47.356;19.448;2022-10-16T08:55:01;2.75;;;0.60;;
68273;SDS011;55104;47.356;19.448;2022-10-16T08:58:15;0.90;;;0.40;;
68273;SDS011;55104;47.356;19.448;2022-10-16T09:01:21;1.60;;;0.70;;
68273;SDS011;55104;47.356;19.448;2022-10-16T09:04:38;1.55;;;0.60;;
68273;SDS011;55104;47.356;19.448;2022-10-16T09:21:12;1.80;;;0.57;;
68273;SDS011;55104;47.356;19.448;2022-10-16T09:24:21;2.28;;;0.80;;
68273;SDS011;55104;47.356;19.448;2022-10-16T09:27:30;0.88;;;0.30;;
68273;SDS011;55104;47.356;19.448;2022-10-16T09:30:32;2.27;;;0.57;;
68273;SDS011;55104;47.356;19.448;2022-10-16T09:33:35;3.03;;;0.70;;
68273;SDS011;55104;47.356;19.448;2022-10-16T09:36:40;1.73;;;0.70;;
68273;SDS011;55104;47.356;19.448;2022-10-16T09:39:45;2.65;;;0.80;;
68273;SDS011;55104;47.356;19.448;2022-10-16T09:42:48;0.95;;;0.40;;
68273;SDS011;55104;47.356;19.448;2022-10-16T09:46:08;4.67;;;0.87;;
68273;SDS011;55104;47.356;19.448;2022-10-16T09:49:31;1.23;;;0.50;;
68273;SDS011;55104;47.356;19.448;2022-10-16T09:52:35;2.60;;;0.65;;
68273;SDS011;55104;47.356;19.448;2022-10-16T09:55:47;3.45;;;1.25;;
68273;SDS011;55104;47.356;19.448;2022-10-16T09:58:51;2.28;;;0.90;;
68273;SDS011;55104;47.356;19.448;2022-10-16T10:02:00;2.67;;;1.03;;
68273;SDS011;55104;47.356;19.448;2022-10-16T10:05:26;2.23;;;0.83;;
68273;SDS011;55104;47.356;19.448;2022-10-16T10:08:28;1.60;;;0.80;;
68273;SDS011;55104;47.356;19.448;2022-10-16T10:11:40;1.63;;;0.70;;
68273;SDS011;55104;47.356;19.448;2022-10-16T10:14:46;3.28;;;1.00;;
68273;SDS011;55104;47.356;19.448;2022-10-16T10:20:59;3.37;;;1.13;;
68273;SDS011;55104;47.356;19.448;2022-10-16T10:24:02;4.00;;;1.20;;
68273;SDS011;55104;47.356;19.448;2022-10-16T10:27:06;3.88;;;0.82;;
68273;SDS011;55104;47.356;19.448;2022-10-16T10:30:27;2.33;;;1.00;;
68273;SDS011;55104;47.356;19.448;2022-10-16T10:33:43;2.40;;;0.93;;
68273;SDS011;55104;47.356;19.448;2022-10-16T10:37:00;2.30;;;1.10;;
68273;SDS011;55104;47.356;19.448;2022-10-16T10:40:15;2.45;;;0.98;;
68273;SDS011;55104;47.356;19.448;2022-10-16T10:43:47;4.15;;;1.58;;
68273;SDS011;55104;47.356;19.448;2022-10-16T10:50:48;3.57;;;0.97;;
68273;SDS011;55104;47.356;19.448;2022-10-16T11:06:46;2.00;;;0.70;;
68273;SDS011;55104;47.356;19.448;2022-10-16T11:09:53;1.97;;;0.70;;
68273;SDS011;55104;47.356;19.448;2022-10-16T11:13:10;3.10;;;1.00;;
68273;SDS011;55104;47.356;19.448;2022-10-16T11:16:30;1.58;;;0.60;;
68273;SDS011;55104;47.356;19.448;2022-10-16T11:22:51;1.90;;;0.90;;
68273;SDS011;55104;47.356;19.448;2022-10-16T11:25:59;2.27;;;0.90;;
68273;SDS011;55104;47.356;19.448;2022-10-16T11:29:03;3.92;;;0.90;;
68273;SDS011;55104;47.356;19.448;2022-10-16T11:32:19;1.90;;;0.75;;
68273;SDS011;55104;47.356;19.448;2022-10-16T11:35:48;3.30;;;0.93;;
68273;SDS011;55104;47.356;19.448;2022-10-16T11:42:09;1.40;;;0.50;;
68273;SDS011;55104;47.356;19.448;2022-10-16T11:45:27;2.92;;;0.70;;
68273;SDS011;55104;47.356;19.448;2022-10-16T11:48:39;2.97;;;0.77;;
68273;SDS011;55104;47.356;19.448;2022-10-16T11:52:02;1.83;;;0.70;;
68273;SDS011;55104;47.356;19.448;2022-10-16T11:55:32;2.77;;;1.27;;
68273;SDS011;55104;47.356;19.448;2022-10-16T12:02:28;3.05;;;1.15;;
68273;SDS011;55104;47.356;19.448;2022-10-16T12:08:54;3.25;;;0.95;;
68273;SDS011;55104;47.356;19.448;2022-10-16T12:11:58;2.70;;;0.90;;
68273;SDS011;55104;47.356;19.448;2022-10-16T12:15:02;3.00;;;0.83;;
68273;SDS011;55104;47.356;19.448;2022-10-16T12:18:27;3.72;;;1.20;;
68273;SDS011;55104;47.356;19.448;2022-10-16T12:21:30;3.30;;;1.08;;
68273;SDS011;55104;47.356;19.448;2022-10-16T12:24:37;2.03;;;0.50;;
68273;SDS011;55104;47.356;19.448;2022-10-16T12:27:40;3.37;;;0.90;;
68273;SDS011;55104;47.356;19.448;2022-10-16T12:30:43;4.47;;;1.07;;
68273;SDS011;55104;47.356;19.448;2022-10-16T12:33:59;4.40;;;1.30;;
68273;SDS011;55104;47.356;19.448;2022-10-16T12:40:27;2.28;;;0.73;;
68273;SDS011;55104;47.356;19.448;2022-10-16T12:43:40;1.73;;;0.70;;
68273;SDS011;55104;47.356;19.448;2022-10-16T12:46:44;1.73;;;0.73;;
68273;SDS011;55104;47.356;19.448;2022-10-16T12:49:50;3.08;;;1.25;;
68273;SDS011;55104;47.356;19.448;2022-10-16T12:52:54;2.95;;;1.00;;
68273;SDS011;55104;47.356;19.448;2022-10-16T12:55:58;3.33;;;0.85;;
68273;SDS011;55104;47.356;19.448;2022-10-16T12:59:48;1.80;;;0.73;;
68273;SDS011;55104;47.356;19.448;2022-10-16T13:09:49;3.38;;;0.90;;
68273;SDS011;55104;47.356;19.448;2022-10-16T13:16:29;1.60;;;0.80;;
68273;SDS011;55104;47.356;19.448;2022-10-16T13:26:34;6.57;;;0.90;;
68273;SDS011;55104;47.356;19.448;2022-10-16T13:29:52;2.53;;;1.05;;
68273;SDS011;55104;47.356;19.448;2022-10-16T13:33:04;1.50;;;0.50;;
68273;SDS011;55104;47.356;19.448;2022-10-16T13:36:57;1.30;;;0.47;;
68273;SDS011;55104;47.356;19.448;2022-10-16T13:40:02;1.98;;;0.90;;
68273;SDS011;55104;47.356;19.448;2022-10-16T13:43:26;3.28;;;1.17;;
68273;SDS011;55104;47.356;19.448;2022-10-16T13:46:40;1.98;;;0.93;;
68273;SDS011;55104;47.356;19.448;2022-10-16T13:49:42;2.30;;;0.47;;
68273;SDS011;55104;47.356;19.448;2022-10-16T13:52:44;2.20;;;0.80;;
68273;SDS011;55104;47.356;19.448;2022-10-16T13:55:46;1.25;;;0.55;;
68273;SDS011;55104;47.356;19.448;2022-10-16T13:59:01;2.00;;;0.60;;
68273;SDS011;55104;47.356;19.448;2022-10-16T14:02:25;1.77;;;0.57;;
68273;SDS011;55104;47.356;19.448;2022-10-16T14:05:28;3.03;;;1.00;;
68273;SDS011;55104;47.356;19.448;2022-10-16T14:08:31;5.83;;;0.60;;
68273;SDS011;55104;47.356;19.448;2022-10-16T14:11:34;2.25;;;0.70;;
68273;SDS011;55104;47.356;19.448;2022-10-16T14:14:47;1.95;;;0.65;;
68273;SDS011;55104;47.356;19.448;2022-10-16T14:17:53;2.17;;;0.70;;
68273;SDS011;55104;47.356;19.448;2022-10-16T14:21:02;2.10;;;0.80;;
68273;SDS011;55104;47.356;19.448;2022-10-16T14:24:12;2.20;;;0.83;;
68273;SDS011;55104;47.356;19.448;2022-10-16T14:27:34;0.98;;;0.45;;
68273;SDS011;55104;47.356;19.448;2022-10-16T14:30:48;2.30;;;1.00;;
68273;SDS011;55104;47.356;19.448;2022-10-16T14:33:55;4.78;;;1.60;;
68273;SDS011;55104;47.356;19.448;2022-10-16T14:37:23;5.07;;;2.50;;
68273;SDS011;55104;47.356;19.448;2022-10-16T14:40:30;4.80;;;1.40;;
68273;SDS011;55104;47.356;19.448;2022-10-16T14:43:37;2.83;;;0.80;;
68273;SDS011;55104;47.356;19.448;2022-10-16T14:46:42;1.42;;;0.50;;
68273;SDS011;55104;47.356;19.448;2022-10-16T14:49:46;2.30;;;0.65;;
68273;SDS011;55104;47.356;19.448;2022-10-16T14:52:48;2.73;;;1.20;;
68273;SDS011;55104;47.356;19.448;2022-10-16T14:55:50;4.30;;;0.87;;
68273;SDS011;55104;47.356;19.448;2022-10-16T14:58:52;1.83;;;0.77;;
68273;SDS011;55104;47.356;19.448;2022-10-16T15:01:54;2.13;;;0.75;;
68273;SDS011;55104;47.356;19.448;2022-10-16T15:04:57;2.40;;;0.80;;
68273;SDS011;55104;47.356;19.448;2022-10-16T15:08:03;2.37;;;1.23;;
68273;SDS011;55104;47.356;19.448;2022-10-16T15:11:10;2.27;;;1.00;;
68273;SDS011;55104;47.356;19.448;2022-10-16T15:14:18;2.58;;;0.80;;
68273;SDS011;55104;47.356;19.448;2022-10-16T15:17:20;1.77;;;0.60;;
68273;SDS011;55104;47.356;19.448;2022-10-16T15:20:23;2.70;;;1.00;;
68273;SDS011;55104;47.356;19.448;2022-10-16T15:23:26;1.47;;;0.60;;
68273;SDS011;55104;47.356;19.448;2022-10-16T15:26:28;3.10;;;1.17;;
68273;SDS011;55104;47.356;19.448;2022-10-16T15:29:31;3.05;;;1.15;;
68273;SDS011;55104;47.356;19.448;2022-10-16T15:32:33;13.48;;;4.45;;
68273;SDS011;55104;47.356;19.448;2022-10-16T15:35:35;6.45;;;3.83;;
68273;SDS011;55104;47.356;19.448;2022-10-16T15:38:37;9.70;;;4.03;;
68273;SDS011;55104;47.356;19.448;2022-10-16T15:41:39;6.83;;;3.37;;
68273;SDS011;55104;47.356;19.448;2022-10-16T15:44:46;8.75;;;4.50;;
68273;SDS011;55104;47.356;19.448;2022-10-16T15:47:48;8.38;;;3.75;;
68273;SDS011;55104;47.356;19.448;2022-10-16T15:50:50;6.30;;;2.33;;
68273;SDS011;55104;47.356;19.448;2022-10-16T15:53:52;3.60;;;1.60;;
68273;SDS011;55104;47.356;19.448;2022-10-16T15:56:55;2.77;;;1.23;;
68273;SDS011;55104;47.356;19.448;2022-10-16T15:59:57;3.25;;;1.33;;
68273;SDS011;55104;47.356;19.448;2022-10-16T16:02:59;4.05;;;1.20;;
68273;SDS011;55104;47.356;19.448;2022-10-16T16:06:04;2.83;;;1.38;;
68273;SDS011;55104;47.356;19.448;2022-10-16T16:09:08;6.27;;;1.17;;
68273;SDS011;55104;47.356;19.448;2022-10-16T16:12:10;3.93;;;1.33;;
68273;SDS011;55104;47.356;19.448;2022-10-16T16:15:12;3.00;;;1.30;;
68273;SDS011;55104;47.356;19.448;2022-10-16T16:18:14;3.75;;;1.55;;
68273;SDS011;55104;47.356;19.448;2022-10-16T16:21:16;3.90;;;1.55;;
68273;SDS011;55104;47.356;19.448;2022-10-16T16:24:19;3.90;;;1.17;;
68273;SDS011;55104;47.356;19.448;2022-10-16T16:27:21;4.80;;;1.33;;
68273;SDS011;55104;47.356;19.448;2022-10-16T16:30:27;2.55;;;0.90;;
68273;SDS011;55104;47.356;19.448;2022-10-16T16:33:29;3.92;;;1.38;;
68273;SDS011;55104;47.356;19.448;2022-10-16T16:36:33;3.78;;;1.98;;
68273;SDS011;55104;47.356;19.448;2022-10-16T16:39:36;2.37;;;0.93;;
68273;SDS011;55104;47.356;19.448;2022-10-16T16:42:38;5.70;;;2.20;;
68273;SDS011;55104;47.356;19.448;2022-10-16T16:45:40;4.15;;;1.80;;
68273;SDS011;55104;47.356;19.448;2022-10-16T16:48:42;3.47;;;1.27;;
68273;SDS011;55104;47.356;19.448;2022-10-16T16:51:45;3.78;;;1.10;;
68273;SDS011;55104;47.356;19.448;2022-10-16T16:54:47;6.77;;;1.57;;
68273;SDS011;55104;47.356;19.448;2022-10-16T16:57:53;3.05;;;1.08;;
68273;SDS011;55104;47.356;19.448;2022-10-16T17:00:55;3.50;;;1.10;;
68273;SDS011;55104;47.356;19.448;2022-10-16T17:04:18;2.40;;;0.80;;
68273;SDS011;55104;47.356;19.448;2022-10-16T17:07:20;2.58;;;0.80;;
68273;SDS011;55104;47.356;19.448;2022-10-16T17:10:25;7.03;;;1.00;;
68273;SDS011;55104;47.356;19.448;2022-10-16T17:13:28;2.05;;;0.65;;
68273;SDS011;55104;47.356;19.448;2022-10-16T17:16:32;1.35;;;0.57;;
68273;SDS011;55104;47.356;19.448;2022-10-16T17:19:36;2.03;;;0.68;;
68273;SDS011;55104;47.356;19.448;2022-10-16T17:22:38;2.45;;;1.00;;
68273;SDS011;55104;47.356;19.448;2022-10-16T17:25:40;4.03;;;1.57;;
68273;SDS011;55104;47.356;19.448;2022-10-16T17:28:43;2.40;;;0.85;;
68273;SDS011;55104;47.356;19.448;2022-10-16T17:31:45;2.30;;;0.80;;
68273;SDS011;55104;47.356;19.448;2022-10-16T17:34:50;4.05;;;1.38;;
68273;SDS011;55104;47.356;19.448;2022-10-16T17:37:52;1.38;;;0.68;;
68273;SDS011;55104;47.356;19.448;2022-10-16T17:40:54;4.60;;;1.93;;
68273;SDS011;55104;47.356;19.448;2022-10-16T17:43:57;7.15;;;0.65;;
68273;SDS011;55104;47.356;19.448;2022-10-16T17:46:59;2.15;;;0.75;;
68273;SDS011;55104;47.356;19.448;2022-10-16T17:50:02;6.13;;;1.17;;
68273;SDS011;55104;47.356;19.448;2022-10-16T17:53:05;3.38;;;1.00;;
68273;SDS011;55104;47.356;19.448;2022-10-16T17:56:11;2.63;;;0.87;;
68273;SDS011;55104;47.356;19.448;2022-10-16T17:59:15;1.52;;;0.55;;
68273;SDS011;55104;47.356;19.448;2022-10-16T18:02:18;2.67;;;0.85;;
68273;SDS011;55104;47.356;19.448;2022-10-16T18:05:20;3.75;;;0.98;;
68273;SDS011;55104;47.356;19.448;2022-10-16T18:08:23;7.00;;;1.95;;
68273;SDS011;55104;47.356;19.448;2022-10-16T18:11:29;3.37;;;1.13;;
68273;SDS011;55104;47.356;19.448;2022-10-16T18:14:33;5.93;;;1.77;;
68273;SDS011;55104;47.356;19.448;2022-10-16T18:17:35;2.42;;;1.02;;
68273;SDS011;55104;47.356;19.448;2022-10-16T18:20:39;3.67;;;1.50;;
68273;SDS011;55104;47.356;19.448;2022-10-16T18:23:41;4.55;;;1.35;;
68273;SDS011;55104;47.356;19.448;2022-10-16T18:26:53;3.70;;;1.43;;
68273;SDS011;55104;47.356;19.448;2022-10-16T18:29:58;1.45;;;0.65;;
68273;SDS011;55104;47.356;19.448;2022-10-16T18:33:01;5.18;;;0.98;;
68273;SDS011;55104;47.356;19.448;2022-10-16T18:36:05;2.35;;;1.10;;
68273;SDS011;55104;47.356;19.448;2022-10-16T18:39:10;5.68;;;1.50;;
68273;SDS011;55104;47.356;19.448;2022-10-16T18:42:17;2.57;;;1.07;;
68273;SDS011;55104;47.356;19.448;2022-10-16T18:45:19;1.70;;;0.60;;
68273;SDS011;55104;47.356;19.448;2022-10-16T18:48:22;1.77;;;0.80;;
68273;SDS011;55104;47.356;19.448;2022-10-16T18:51:28;1.55;;;0.73;;
68273;SDS011;55104;47.356;19.448;2022-10-16T18:54:32;3.42;;;1.00;;
68273;SDS011;55104;47.356;19.448;2022-10-16T18:57:34;2.17;;;0.60;;
68273;SDS011;55104;47.356;19.448;2022-10-16T19:00:36;2.38;;;0.88;;
68273;SDS011;55104;47.356;19.448;2022-10-16T19:03:39;1.40;;;0.63;;
68273;SDS011;55104;47.356;19.448;2022-10-16T19:06:46;1.73;;;0.40;;
68273;SDS011;55104;47.356;19.448;2022-10-16T19:09:50;6.85;;;0.63;;
68273;SDS011;55104;47.356;19.448;2022-10-16T19:12:52;3.30;;;1.63;;
68273;SDS011;55104;47.356;19.448;2022-10-16T19:15:53;8.57;;;1.35;;
68273;SDS011;55104;47.356;19.448;2022-10-16T19:19:06;1.52;;;0.63;;
68273;SDS011;55104;47.356;19.448;2022-10-16T19:22:08;3.00;;;1.15;;
68273;SDS011;55104;47.356;19.448;2022-10-16T19:25:14;2.58;;;1.40;;
68273;SDS011;55104;47.356;19.448;2022-10-16T19:28:16;3.77;;;1.80;;
68273;SDS011;55104;47.356;19.448;2022-10-16T19:31:19;3.10;;;0.80;;
68273;SDS011;55104;47.356;19.448;2022-10-16T19:34:22;3.28;;;1.02;;
68273;SDS011;55104;47.356;19.448;2022-10-16T19:37:24;4.45;;;1.60;;
68273;SDS011;55104;47.356;19.448;2022-10-16T19:40:28;4.13;;;1.17;;